Time;durP1;ratioP1;P1;durP2;ratioP2;P2;SDS_P1;SDS_P2;PMS_P1;PMS_P2;Temp;Humidity;BMP_temperature;BMP_pressure;BME280_temperature;BME280_humidity;BME280_pressure;Samples;Min_cycle;Max_cycle;Signal;HPM_P1;HPM_P2
2021/11/30 00:00:55;;;;;;;5.18;2.85;;;6.90;99.90;;;;;;4955654;29;20025;-95
2021/11/30 00:19:28;;;;;;;5.40;2.40;;;7.00;99.90;;;;;;5297629;23;20106;-94
2021/11/30 00:21:58;;;;;;;2.42;1.88;;;7.00;99.90;;;;;;5255064;23;20130;-96
2021/11/30 00:24:27;;;;;;;6.50;2.22;;;7.10;99.90;;;;;;5115152;23;20043;-94
2021/11/30 00:26:54;;;;;;;5.35;2.25;;;7.10;99.90;;;;;;4953174;29;20043;-95
2021/11/30 00:29:22;;;;;;;3.50;1.30;;;7.20;99.90;;;;;;4937877;29;20063;-96
2021/11/30 00:31:48;;;;;;;3.17;2.00;;;7.20;99.90;;;;;;4958507;28;20027;-96
2021/11/30 05:52:45;;;;;;;3.60;0.95;;;8.90;99.90;;;;;;4917246;29;20081;-95
2021/11/30 05:55:12;;;;;;;2.80;1.40;;;8.90;99.90;;;;;;4913858;29;20044;-94
2021/11/30 06:00:19;;;;;;;4.50;2.13;;;8.90;99.90;;;;;;5511293;23;20051;-96
2021/11/30 06:03:05;;;;;;;1.85;1.30;;;8.90;99.90;;;;;;4973628;29;20166;-96
2021/11/30 07:24:44;;;;;;;9.10;2.72;;;9.00;99.90;;;;;;5672862;23;20136;-93
2021/11/30 07:27:10;;;;;;;2.95;2.10;;;9.00;99.90;;;;;;4940541;29;20039;-95
2021/11/30 07:29:37;;;;;;;5.93;2.22;;;8.90;99.90;;;;;;4957929;29;20055;-95
2021/11/30 07:32:07;;;;;;;2.30;1.63;;;9.00;99.90;;;;;;4958538;28;20113;-96
2021/11/30 07:42:18;;;;;;;4.03;1.30;;;9.00;99.90;;;;;;4971101;28;20035;-96
2021/11/30 07:44:46;;;;;;;2.00;1.38;;;9.00;99.90;;;;;;4974992;28;20024;-94
2021/11/30 07:47:14;;;;;;;5.90;1.60;;;9.00;99.90;;;;;;4939121;29;20024;-95
2021/11/30 07:49:52;;;;;;;3.97;1.73;;;9.00;99.90;;;;;;4941066;29;20035;-96
2021/11/30 07:52:20;;;;;;;6.50;1.83;;;9.00;99.90;;;;;;4942049;29;20035;-94
2021/11/30 07:54:46;;;;;;;2.50;1.33;;;9.00;99.90;;;;;;4936357;29;20023;-95
2021/11/30 07:57:21;;;;;;;2.78;1.63;;;9.00;99.90;;;;;;4951232;29;20031;-96
2021/11/30 07:59:50;;;;;;;2.65;1.65;;;9.00;99.90;;;;;;4937884;29;20027;-95
2021/11/30 08:21:42;;;;;;;2.60;1.80;;;9.10;99.90;;;;;;5134004;23;20127;-95
2021/11/30 08:24:08;;;;;;;1.98;1.40;;;9.10;99.90;;;;;;4944621;29;20031;-96
2021/11/30 08:31:48;;;;;;;1.10;1.00;;;9.10;99.90;;;;;;5091920;23;20040;-94
2021/11/30 08:56:12;;;;;;;0.73;0.45;;;9.10;99.90;;;;;;4990534;28;20042;-95
2021/11/30 09:04:09;;;;;;;0.40;0.40;;;9.10;99.90;;;;;;5186531;23;20030;-95
2021/11/30 09:06:35;;;;;;;0.80;0.70;;;9.20;99.90;;;;;;4968663;28;20054;-94
2021/11/30 09:25:34;;;;;;;0.90;0.60;;;9.20;99.90;;;;;;5033620;23;20062;-93
2021/11/30 09:28:02;;;;;;;0.90;0.65;;;9.10;99.90;;;;;;4944163;29;20090;-93
2021/11/30 09:30:28;;;;;;;0.88;0.60;;;9.20;99.90;;;;;;4941723;29;20035;-94
2021/11/30 09:32:54;;;;;;;1.60;0.95;;;9.20;99.90;;;;;;4950346;29;20090;-94
2021/11/30 09:35:23;;;;;;;2.25;1.10;;;9.20;99.90;;;;;;4942403;29;20023;-93
2021/11/30 09:37:51;;;;;;;1.80;1.35;;;9.20;99.90;;;;;;4941680;29;20034;-93
2021/11/30 09:40:21;;;;;;;3.50;0.95;;;9.20;99.90;;;;;;4942344;29;20114;-93
2021/11/30 09:42:48;;;;;;;2.42;0.73;;;9.20;99.90;;;;;;4943140;29;20050;-93
2021/11/30 09:45:14;;;;;;;0.75;0.60;;;9.20;99.90;;;;;;4940391;29;20074;-92
2021/11/30 09:47:42;;;;;;;1.05;0.70;;;9.20;99.90;;;;;;4940243;29;20118;-92
2021/11/30 09:50:11;;;;;;;1.42;0.75;;;9.20;99.90;;;;;;4942373;29;20079;-93
2021/11/30 09:52:38;;;;;;;0.60;0.40;;;9.20;99.90;;;;;;4945595;29;20027;-93
2021/11/30 09:55:08;;;;;;;0.60;0.40;;;9.30;99.90;;;;;;4949718;29;20151;-93
2021/11/30 09:57:40;;;;;;;;;;;9.20;99.90;;;;;;4950516;29;20138;-92
2021/11/30 10:00:08;;;;;;;1.30;0.47;;;9.20;99.90;;;;;;4946262;29;19910;-93
2021/11/30 10:02:34;;;;;;;1.42;0.60;;;9.30;99.90;;;;;;4950007;29;20023;-92
2021/11/30 10:05:00;;;;;;;0.98;0.70;;;9.30;99.90;;;;;;4951952;29;20059;-93
2021/11/30 10:07:41;;;;;;;0.68;0.68;;;9.30;99.90;;;;;;4943517;29;20027;-93
2021/11/30 10:10:33;;;;;;;1.00;0.50;;;9.30;99.90;;;;;;4943247;29;20039;-93
2021/11/30 10:13:05;;;;;;;1.08;0.95;;;9.30;99.90;;;;;;4942551;29;20028;-92
2021/11/30 10:15:47;;;;;;;0.30;0.30;;;9.20;99.90;;;;;;4944080;29;20027;-92
2021/11/30 10:18:28;;;;;;;2.03;0.80;;;9.30;99.90;;;;;;4944463;29;20050;-93
2021/11/30 10:21:20;;;;;;;0.60;0.50;;;9.30;99.90;;;;;;4945690;29;20045;-93
2021/11/30 10:23:53;;;;;;;1.95;0.70;;;9.30;99.90;;;;;;4945445;28;20090;-94
2021/11/30 10:26:22;;;;;;;1.25;0.80;;;9.20;99.90;;;;;;4948246;29;20068;-94
2021/11/30 10:29:07;;;;;;;1.30;1.00;;;9.30;99.90;;;;;;4953322;29;20031;-94
2021/11/30 10:31:38;;;;;;;2.45;0.70;;;9.30;99.90;;;;;;4953250;29;20027;-93
2021/11/30 10:34:30;;;;;;;1.13;0.63;;;9.30;99.90;;;;;;4954360;29;20070;-92
2021/11/30 10:37:03;;;;;;;0.50;0.45;;;9.30;99.90;;;;;;4953080;29;20062;-93
2021/11/30 10:39:35;;;;;;;1.20;0.45;;;9.30;99.90;;;;;;4950272;29;20062;-93
2021/11/30 10:42:18;;;;;;;0.68;0.68;;;9.30;99.90;;;;;;4951892;29;20047;-91
2021/11/30 10:44:54;;;;;;;2.65;0.70;;;9.30;99.90;;;;;;4951259;29;20062;-94
2021/11/30 10:47:31;;;;;;;0.77;0.65;;;9.30;99.90;;;;;;4950247;29;20031;-92
2021/11/30 10:50:21;;;;;;;1.30;0.57;;;9.30;99.90;;;;;;4951803;29;20067;-94
2021/11/30 10:52:50;;;;;;;0.90;0.47;;;9.30;99.90;;;;;;4948944;29;20031;-93
2021/11/30 10:55:20;;;;;;;0.40;0.40;;;9.40;99.90;;;;;;4946798;29;20062;-92
2021/11/30 10:57:48;;;;;;;1.35;0.70;;;9.30;99.90;;;;;;4949025;29;20039;-93
2021/11/30 11:00:21;;;;;;;0.52;0.43;;;9.30;99.90;;;;;;4948295;29;20070;-93
2021/11/30 11:03:13;;;;;;;0.68;0.50;;;9.30;99.90;;;;;;4948713;29;20012;-93
2021/11/30 11:05:45;;;;;;;0.40;0.40;;;9.30;99.90;;;;;;4950837;29;20046;-93
2021/11/30 11:08:18;;;;;;;0.95;0.45;;;9.30;99.90;;;;;;4949164;29;20027;-92
2021/11/30 11:11:00;;;;;;;1.73;0.63;;;9.30;99.90;;;;;;4949008;29;20039;-93
2021/11/30 11:13:38;;;;;;;0.75;0.50;;;9.30;99.90;;;;;;4941202;29;20019;-93
2021/11/30 11:16:07;;;;;;;2.80;1.40;;;9.30;99.90;;;;;;4952050;29;20027;-92
2021/11/30 11:18:38;;;;;;;1.33;0.63;;;9.30;99.90;;;;;;4955151;29;20066;-93
2021/11/30 11:21:26;;;;;;;0.77;0.50;;;9.30;99.90;;;;;;4956826;29;20034;-92
2021/11/30 11:24:20;;;;;;;2.97;0.70;;;9.30;99.90;;;;;;4947118;28;20032;-94
2021/11/30 11:26:50;;;;;;;0.60;0.60;;;9.30;99.90;;;;;;4947029;29;20042;-94
2021/11/30 11:29:25;;;;;;;1.17;0.40;;;9.30;99.90;;;;;;4949001;29;20042;-92
2021/11/30 11:32:02;;;;;;;2.40;0.70;;;9.30;99.90;;;;;;4947272;29;20059;-93
2021/11/30 11:34:31;;;;;;;0.65;0.50;;;9.30;99.90;;;;;;4949017;29;20065;-93
2021/11/30 11:37:00;;;;;;;2.55;0.55;;;9.30;99.90;;;;;;4952648;29;20028;-92
2021/11/30 11:39:39;;;;;;;4.90;0.93;;;9.30;99.90;;;;;;4953003;29;20027;-94
2021/11/30 11:42:11;;;;;;;3.00;1.25;;;9.30;99.90;;;;;;4953889;29;20050;-93
2021/11/30 11:44:39;;;;;;;4.22;1.30;;;9.30;99.90;;;;;;4945952;29;20090;-93
2021/11/30 11:47:08;;;;;;;1.60;1.23;;;9.30;99.90;;;;;;4951564;29;20027;-92
2021/11/30 11:49:43;;;;;;;1.35;0.88;;;9.30;99.90;;;;;;4953666;29;20039;-93
2021/11/30 11:52:21;;;;;;;1.65;1.30;;;9.30;99.90;;;;;;4953604;29;20023;-93
2021/11/30 11:55:11;;;;;;;5.65;1.80;;;9.30;99.90;;;;;;4953328;29;20109;-93
2021/11/30 11:57:37;;;;;;;2.60;1.65;;;9.30;99.90;;;;;;4953582;29;20023;-93
2021/11/30 12:00:21;;;;;;;2.20;1.80;;;9.40;99.90;;;;;;4953109;29;20155;-93
2021/11/30 12:02:58;;;;;;;2.15;1.70;;;9.40;99.90;;;;;;4951536;29;20127;-92
2021/11/30 12:05:52;;;;;;;4.40;1.73;;;9.40;99.90;;;;;;4950861;29;20031;-94
2021/11/30 12:08:32;;;;;;;2.35;1.67;;;9.40;99.90;;;;;;4946445;29;20085;-92
2021/11/30 12:10:58;;;;;;;5.40;1.83;;;9.40;99.90;;;;;;4946544;29;20040;-93
2021/11/30 12:13:26;;;;;;;6.85;2.83;;;9.40;99.90;;;;;;4948459;29;20023;-92
2021/11/30 12:16:12;;;;;;;2.88;2.03;;;9.50;99.90;;;;;;4953365;29;20508;-93
2021/11/30 12:18:47;;;;;;;4.97;2.50;;;9.50;99.90;;;;;;4946307;29;20705;-92
2021/11/30 12:21:34;;;;;;;6.82;2.90;;;9.50;99.90;;;;;;4950480;29;20035;-92
2021/11/30 12:24:00;;;;;;;4.80;2.40;;;9.50;99.90;;;;;;4951642;28;20051;-92
2021/11/30 12:26:35;;;;;;;3.97;1.85;;;9.50;99.90;;;;;;4952516;29;20037;-92
2021/11/30 12:29:04;;;;;;;4.85;1.58;;;9.50;99.90;;;;;;4950959;29;20073;-94
2021/11/30 12:31:36;;;;;;;4.30;2.30;;;9.50;99.90;;;;;;4952513;29;20031;-92
2021/11/30 12:34:03;;;;;;;3.15;2.28;;;9.60;99.90;;;;;;4951160;29;20023;-93
2021/11/30 12:36:37;;;;;;;8.77;2.45;;;9.60;99.90;;;;;;4951504;29;20138;-93
2021/11/30 12:39:05;;;;;;;6.15;2.05;;;9.60;99.90;;;;;;4950073;29;20031;-93
2021/11/30 12:41:39;;;;;;;4.25;2.30;;;9.60;99.90;;;;;;4948170;29;20027;-93
2021/11/30 12:44:15;;;;;;;4.20;2.65;;;9.60;99.90;;;;;;4949381;29;20023;-93
2021/11/30 12:46:45;;;;;;;6.25;2.00;;;9.60;99.90;;;;;;4948370;29;20027;-93
2021/11/30 12:49:32;;;;;;;8.02;2.38;;;9.70;99.90;;;;;;4954650;29;20091;-91
2021/11/30 12:52:04;;;;;;;3.33;2.38;;;9.70;99.90;;;;;;4950986;29;20031;-93
2021/11/30 12:54:30;;;;;;;3.38;2.35;;;9.70;99.90;;;;;;4945882;29;20035;-93
2021/11/30 12:56:58;;;;;;;3.92;2.30;;;9.70;99.90;;;;;;4948841;29;20031;-93
2021/11/30 12:59:41;;;;;;;4.50;2.25;;;9.70;99.90;;;;;;4947407;29;20062;-93
2021/11/30 13:02:21;;;;;;;3.55;1.70;;;9.70;99.90;;;;;;4947247;29;20086;-91
2021/11/30 13:04:49;;;;;;;3.13;1.40;;;9.70;99.90;;;;;;4945797;29;20390;-92
2021/11/30 13:07:17;;;;;;;10.85;3.15;;;9.70;99.90;;;;;;4945719;29;20031;-93
2021/11/30 13:09:46;;;;;;;3.58;1.73;;;9.70;99.90;;;;;;4945299;29;20077;-94
2021/11/30 13:12:20;;;;;;;7.65;2.30;;;9.80;99.90;;;;;;4946210;29;20047;-94
2021/11/30 13:14:48;;;;;;;7.60;2.13;;;9.80;99.90;;;;;;4945973;29;20035;-94
2021/11/30 13:17:15;;;;;;;7.05;2.35;;;9.80;99.90;;;;;;4946400;29;20031;-93
2021/11/30 13:19:43;;;;;;;4.07;2.10;;;9.70;99.90;;;;;;4951403;29;20087;-93
2021/11/30 13:22:11;;;;;;;4.60;2.40;;;9.80;99.90;;;;;;4960556;29;20046;-93
2021/11/30 13:24:43;;;;;;;4.07;2.60;;;9.70;99.90;;;;;;4962448;28;20065;-93
2021/11/30 13:27:15;;;;;;;8.35;4.63;;;9.80;99.90;;;;;;4963118;29;20055;-93
2021/11/30 13:30:08;;;;;;;9.77;5.53;;;9.70;99.90;;;;;;4957713;29;20051;-93
2021/11/30 13:32:40;;;;;;;14.38;9.43;;;9.70;99.90;;;;;;4955031;29;20035;-92
2021/11/30 13:35:10;;;;;;;19.52;10.23;;;9.70;99.90;;;;;;4953513;29;20023;-93
2021/11/30 13:37:38;;;;;;;14.65;9.48;;;9.70;99.90;;;;;;4953002;29;20027;-92
2021/11/30 13:40:08;;;;;;;15.63;10.13;;;9.70;99.90;;;;;;4956540;29;20035;-91
2021/11/30 13:42:52;;;;;;;12.65;8.52;;;9.70;99.90;;;;;;4953117;29;20125;-92
2021/11/30 13:45:18;;;;;;;16.55;10.32;;;9.70;99.90;;;;;;4943066;29;20023;-92
2021/11/30 13:47:51;;;;;;;15.02;8.80;;;9.70;99.90;;;;;;4947333;29;20039;-94
2021/11/30 13:50:19;;;;;;;17.25;10.77;;;9.70;99.90;;;;;;4949306;29;20035;-92
2021/11/30 13:52:45;;;;;;;18.92;11.57;;;9.70;99.90;;;;;;4953710;29;20030;-93
2021/11/30 13:55:13;;;;;;;16.63;10.23;;;9.70;99.90;;;;;;4946379;29;20023;-91
2021/11/30 13:57:47;;;;;;;16.13;10.95;;;9.70;99.90;;;;;;4940554;29;20035;-93
2021/11/30 14:00:18;;;;;;;18.55;10.95;;;9.70;99.90;;;;;;4941565;29;20035;-93
2021/11/30 14:02:46;;;;;;;16.80;10.07;;;9.70;99.90;;;;;;4941474;29;20397;-91
2021/11/30 14:05:13;;;;;;;16.60;11.23;;;9.70;99.90;;;;;;4941514;29;20034;-92
2021/11/30 14:07:39;;;;;;;17.50;9.88;;;9.70;99.90;;;;;;4940777;29;20481;-92
2021/11/30 14:10:23;;;;;;;13.68;10.63;;;9.70;99.90;;;;;;4941856;29;20130;-93
2021/11/30 14:12:50;;;;;;;17.27;11.55;;;9.70;99.90;;;;;;4941102;29;20041;-92
2021/11/30 14:15:17;;;;;;;17.65;12.15;;;9.70;99.90;;;;;;4940441;29;20031;-93
2021/11/30 14:17:45;;;;;;;23.75;14.32;;;9.70;99.90;;;;;;4941083;29;20026;-92
2021/11/30 14:20:23;;;;;;;23.05;13.82;;;9.70;99.90;;;;;;4940915;29;20024;-92
2021/11/30 14:22:49;;;;;;;21.25;12.38;;;9.70;99.90;;;;;;4940909;29;20031;-91
2021/11/30 14:25:20;;;;;;;19.25;12.77;;;9.70;99.90;;;;;;4941289;29;20054;-94
2021/11/30 14:27:58;;;;;;;20.45;12.70;;;9.70;99.90;;;;;;4941105;29;20041;-92
2021/11/30 14:30:36;;;;;;;23.00;13.38;;;9.70;99.90;;;;;;4942596;29;20043;-93
2021/11/30 14:33:08;;;;;;;23.65;13.48;;;9.70;99.90;;;;;;4945208;29;20094;-92
2021/11/30 14:35:56;;;;;;;27.88;13.95;;;9.70;99.90;;;;;;4945785;29;20034;-94
2021/11/30 14:38:26;;;;;;;22.98;13.60;;;9.70;99.90;;;;;;4942770;29;20027;-93
2021/11/30 14:40:52;;;;;;;23.50;13.90;;;9.70;99.90;;;;;;4945233;29;20030;-92
2021/11/30 14:43:19;;;;;;;27.55;14.10;;;9.70;99.90;;;;;;4924931;29;20054;-92
2021/11/30 14:45:48;;;;;;;31.42;16.08;;;9.70;99.90;;;;;;4940293;29;20027;-93
2021/11/30 14:48:19;;;;;;;21.67;14.43;;;9.70;99.90;;;;;;4939709;29;20489;-94
2021/11/30 14:51:00;;;;;;;22.73;13.93;;;9.70;99.90;;;;;;4940350;29;20126;-93
2021/11/30 14:53:48;;;;;;;23.73;14.48;;;9.70;99.90;;;;;;4940241;29;20053;-92
2021/11/30 14:56:27;;;;;;;23.95;14.15;;;9.70;99.90;;;;;;4940656;29;20035;-94
2021/11/30 14:58:53;;;;;;;22.00;15.15;;;9.70;99.90;;;;;;4940282;29;20027;-91
2021/11/30 15:01:27;;;;;;;28.58;16.25;;;9.70;99.90;;;;;;4939781;29;20058;-93
2021/11/30 15:03:58;;;;;;;27.05;15.63;;;9.70;99.90;;;;;;4940982;29;20035;-92
2021/11/30 15:06:39;;;;;;;26.05;16.55;;;9.60;99.90;;;;;;4949039;29;20073;-93
2021/11/30 15:09:14;;;;;;;27.42;16.58;;;9.70;99.90;;;;;;4947165;29;20031;-92
2021/11/30 15:11:42;;;;;;;29.98;16.45;;;9.60;99.90;;;;;;4942586;29;20049;-92
2021/11/30 15:14:18;;;;;;;28.60;16.45;;;9.60;99.90;;;;;;4941382;29;20027;-93
2021/11/30 15:16:54;;;;;;;25.25;15.82;;;9.60;99.90;;;;;;4941187;29;20047;-92
2021/11/30 15:19:23;;;;;;;26.27;16.98;;;9.60;99.90;;;;;;4940529;29;20065;-92
2021/11/30 15:22:00;;;;;;;30.13;17.35;;;9.60;99.90;;;;;;4939583;29;20043;-92
2021/11/30 15:24:38;;;;;;;34.88;18.55;;;9.60;99.90;;;;;;4939972;29;20043;-92
2021/11/30 15:27:07;;;;;;;32.25;19.33;;;9.60;99.90;;;;;;4940160;29;20034;-93
2021/11/30 15:29:34;;;;;;;29.73;17.35;;;9.50;99.90;;;;;;4939615;29;20037;-94
2021/11/30 15:32:05;;;;;;;33.53;18.77;;;9.60;99.90;;;;;;4939614;29;20031;-93
2021/11/30 15:34:30;;;;;;;25.05;17.17;;;9.50;99.90;;;;;;4939630;29;20023;-94
2021/11/30 15:36:56;;;;;;;24.98;16.60;;;9.50;99.90;;;;;;4939178;29;20027;-92
2021/11/30 15:39:22;;;;;;;31.63;18.52;;;9.60;99.90;;;;;;4939443;29;20548;-92
2021/11/30 15:41:51;;;;;;;26.92;16.42;;;9.60;99.90;;;;;;4940032;29;20035;-94
2021/11/30 15:44:18;;;;;;;32.05;18.88;;;9.50;99.90;;;;;;4939217;29;20051;-93
2021/11/30 15:46:44;;;;;;;27.63;17.42;;;9.60;99.90;;;;;;4939106;29;20114;-94
2021/11/30 15:49:10;;;;;;;21.42;15.00;;;9.50;99.90;;;;;;4938930;29;20133;-93
2021/11/30 15:51:39;;;;;;;22.08;14.48;;;9.50;99.90;;;;;;4939362;29;20027;-93
2021/11/30 15:54:07;;;;;;;19.10;13.25;;;9.50;99.90;;;;;;4940571;29;20034;-93
2021/11/30 15:59:18;;;;;;;20.48;12.57;;;9.50;99.90;;;;;;4967076;29;20042;-93
2021/11/30 16:01:46;;;;;;;20.10;11.90;;;9.50;99.90;;;;;;4944429;29;20027;-94
2021/11/30 16:04:12;;;;;;;17.25;12.10;;;9.50;99.90;;;;;;4945965;29;20046;-94
2021/11/30 16:06:37;;;;;;;17.92;11.65;;;9.50;99.90;;;;;;4946427;29;20023;-93
2021/11/30 16:09:04;;;;;;;15.50;9.98;;;9.50;99.90;;;;;;4944337;29;20035;-93
2021/11/30 16:11:31;;;;;;;14.25;8.95;;;9.50;99.90;;;;;;4942990;29;20027;-93
2021/11/30 16:14:02;;;;;;;14.40;8.38;;;9.50;99.90;;;;;;4942724;29;20039;-94
2021/11/30 16:16:31;;;;;;;13.23;8.63;;;9.50;99.90;;;;;;4943585;29;20039;-93
2021/11/30 16:19:00;;;;;;;11.85;7.15;;;9.50;99.90;;;;;;4941624;28;20062;-94
2021/11/30 16:21:25;;;;;;;10.10;7.60;;;9.50;99.90;;;;;;4946114;29;20034;-94
2021/11/30 16:23:52;;;;;;;10.07;6.88;;;9.50;99.90;;;;;;4946474;29;20024;-92
2021/11/30 16:26:18;;;;;;;8.50;5.38;;;9.50;99.90;;;;;;4950055;29;20028;-93
2021/11/30 16:28:44;;;;;;;8.63;4.88;;;9.50;99.90;;;;;;4953520;29;20038;-94
2021/11/30 16:31:11;;;;;;;5.50;4.20;;;9.50;99.90;;;;;;4954316;29;20042;-92
2021/11/30 16:33:38;;;;;;;7.60;4.20;;;9.50;99.90;;;;;;4952466;29;20027;-93
2021/11/30 16:36:06;;;;;;;3.88;3.20;;;9.60;99.90;;;;;;4947251;29;20038;-93
2021/11/30 16:38:32;;;;;;;5.03;3.40;;;9.60;99.90;;;;;;4945068;29;20122;-93
2021/11/30 16:40:57;;;;;;;5.50;3.50;;;9.60;99.90;;;;;;4944340;29;20042;-93
2021/11/30 16:43:24;;;;;;;6.55;3.45;;;9.60;99.90;;;;;;4944120;29;20027;-93
2021/11/30 16:45:50;;;;;;;6.78;3.50;;;9.60;99.90;;;;;;4942957;29;20027;-92
2021/11/30 16:48:15;;;;;;;6.60;3.67;;;9.60;99.90;;;;;;4944881;29;20081;-93
2021/11/30 16:50:41;;;;;;;6.70;2.42;;;9.60;99.90;;;;;;4943946;29;20035;-94
2021/11/30 16:53:10;;;;;;;5.60;2.33;;;9.60;99.90;;;;;;4943315;29;20548;-93
2021/11/30 16:55:37;;;;;;;5.35;2.28;;;9.60;99.90;;;;;;4943120;29;20389;-94
2021/11/30 16:58:07;;;;;;;3.65;2.60;;;9.50;99.90;;;;;;4942651;29;20027;-94
2021/11/30 17:00:38;;;;;;;6.70;3.00;;;9.50;99.90;;;;;;4942456;29;20035;-93
2021/11/30 17:03:06;;;;;;;4.07;2.67;;;9.50;99.90;;;;;;4943005;29;20028;-93
2021/11/30 17:05:32;;;;;;;6.68;3.33;;;9.40;99.90;;;;;;4942405;29;20123;-91
2021/11/30 17:07:58;;;;;;;3.28;2.50;;;9.40;99.90;;;;;;4943337;29;20027;-93
2021/11/30 17:10:24;;;;;;;2.42;1.60;;;9.30;99.90;;;;;;4942541;29;20035;-93
2021/11/30 17:12:54;;;;;;;7.13;2.30;;;9.30;99.90;;;;;;4942505;29;20023;-93
2021/11/30 17:15:20;;;;;;;2.38;1.70;;;9.30;99.90;;;;;;4942125;29;20452;-92
2021/11/30 17:17:47;;;;;;;3.13;1.50;;;9.20;99.90;;;;;;4943203;29;20032;-92
2021/11/30 17:20:14;;;;;;;3.40;2.28;;;9.20;99.90;;;;;;4942269;29;20509;-93
2021/11/30 17:22:47;;;;;;;5.78;3.33;;;9.20;99.90;;;;;;4941830;29;20054;-92
2021/11/30 17:25:13;;;;;;;5.57;2.80;;;9.20;99.90;;;;;;4941939;29;20047;-93
2021/11/30 17:27:42;;;;;;;4.03;2.83;;;9.10;99.90;;;;;;4941695;29;20122;-93
2021/11/30 17:30:10;;;;;;;4.13;2.03;;;9.10;99.90;;;;;;4941680;29;20042;-91
2021/11/30 17:32:36;;;;;;;5.10;2.60;;;9.10;99.90;;;;;;4941220;29;20083;-90
2021/11/30 17:35:02;;;;;;;3.70;2.25;;;9.10;99.90;;;;;;4941148;29;20027;-90
2021/11/30 17:37:27;;;;;;;6.55;2.88;;;9.10;99.90;;;;;;4926400;29;20028;-90
2021/11/30 17:39:55;;;;;;;3.67;2.50;;;9.10;99.90;;;;;;4923008;29;20036;-90
2021/11/30 17:42:21;;;;;;;5.60;2.58;;;9.20;99.90;;;;;;4933707;29;20807;-90
2021/11/30 17:44:47;;;;;;;7.53;3.47;;;9.20;99.90;;;;;;4927930;29;20031;-92
2021/11/30 17:47:12;;;;;;;2.95;2.33;;;9.30;99.90;;;;;;4929093;29;20024;-91
2021/11/30 17:49:38;;;;;;;4.47;2.30;;;9.30;99.90;;;;;;4916416;29;20384;-92
2021/11/30 17:52:08;;;;;;;8.10;2.70;;;9.30;99.90;;;;;;4920483;29;20089;-91
2021/11/30 17:54:35;;;;;;;2.45;2.10;;;9.30;99.90;;;;;;4918729;29;20035;-91
2021/11/30 17:57:01;;;;;;;6.47;2.80;;;9.30;99.90;;;;;;4910394;29;20027;-90
2021/11/30 17:59:26;;;;;;;5.25;2.60;;;9.30;99.90;;;;;;4921047;29;20474;-91
2021/11/30 18:01:52;;;;;;;4.25;2.45;;;9.30;99.90;;;;;;4921225;29;20028;-91
2021/11/30 18:04:20;;;;;;;4.28;2.72;;;9.20;99.90;;;;;;4919142;29;20032;-91
2021/11/30 18:06:46;;;;;;;7.25;3.22;;;9.20;99.90;;;;;;4908794;29;20059;-90
2021/11/30 18:09:14;;;;;;;4.22;2.70;;;9.20;99.90;;;;;;4911735;29;20028;-92
2021/11/30 18:11:40;;;;;;;4.78;2.85;;;9.20;99.90;;;;;;4942210;28;20028;-92
2021/11/30 18:14:06;;;;;;;5.78;3.13;;;9.20;99.90;;;;;;4919779;29;20034;-92
2021/11/30 18:16:32;;;;;;;5.18;3.13;;;9.20;99.90;;;;;;4916736;29;20028;-92
2021/11/30 18:18:58;;;;;;;4.88;3.38;;;9.20;99.90;;;;;;4918114;29;20280;-92
2021/11/30 18:21:27;;;;;;;3.33;2.30;;;9.20;99.90;;;;;;4920576;29;20058;-92
2021/11/30 18:23:59;;;;;;;7.90;3.05;;;9.30;99.90;;;;;;4919384;29;20023;-91
2021/11/30 18:26:25;;;;;;;3.85;2.60;;;9.30;99.90;;;;;;4921357;29;20482;-91
2021/11/30 18:28:51;;;;;;;3.75;2.10;;;9.30;99.90;;;;;;4916825;29;20034;-92
2021/11/30 18:31:17;;;;;;;2.60;1.55;;;9.30;99.90;;;;;;4927742;29;20483;-92
2021/11/30 18:33:45;;;;;;;3.17;2.15;;;9.30;99.90;;;;;;4918808;29;20031;-91
2021/11/30 18:36:12;;;;;;;6.43;1.70;;;9.30;99.90;;;;;;4946999;28;20106;-92
2021/11/30 18:38:39;;;;;;;3.90;1.90;;;9.30;99.90;;;;;;4918416;29;20443;-92
2021/11/30 18:41:04;;;;;;;3.63;2.00;;;9.20;99.90;;;;;;4919392;29;20104;-92
2021/11/30 18:43:30;;;;;;;5.53;1.80;;;9.30;99.90;;;;;;4919810;29;20020;-91
2021/11/30 18:45:59;;;;;;;2.42;1.65;;;9.30;99.90;;;;;;4938452;29;20047;-92
2021/11/30 18:48:28;;;;;;;4.20;1.80;;;9.30;99.90;;;;;;4920424;29;20047;-91
2021/11/30 18:50:56;;;;;;;4.05;1.30;;;9.40;99.90;;;;;;4918965;29;20040;-90
2021/11/30 18:53:23;;;;;;;4.88;1.50;;;9.40;99.90;;;;;;4919984;29;20020;-91
2021/11/30 18:55:49;;;;;;;2.13;1.52;;;9.40;99.90;;;;;;4920318;29;20036;-91
2021/11/30 18:58:16;;;;;;;2.67;1.60;;;9.40;99.90;;;;;;4921107;29;20051;-92
2021/11/30 19:00:42;;;;;;;2.30;1.48;;;9.40;99.90;;;;;;4917643;29;20047;-92
2021/11/30 19:03:08;;;;;;;6.10;2.53;;;9.40;99.90;;;;;;4915008;29;20063;-91
2021/11/30 19:05:34;;;;;;;1.80;1.63;;;9.50;99.90;;;;;;4920049;29;20035;-90
2021/11/30 19:08:00;;;;;;;2.42;1.80;;;9.50;99.90;;;;;;4920355;29;20462;-91
2021/11/30 19:10:26;;;;;;;3.05;1.65;;;9.60;99.90;;;;;;4918852;29;20490;-91
2021/11/30 19:12:52;;;;;;;2.53;1.70;;;9.60;99.90;;;;;;4919271;29;20027;-90
2021/11/30 19:15:19;;;;;;;3.65;1.50;;;9.60;99.90;;;;;;4919629;29;20060;-91
2021/11/30 19:17:45;;;;;;;4.93;1.50;;;9.50;99.90;;;;;;4919645;29;20028;-91
2021/11/30 19:20:12;;;;;;;2.50;1.20;;;9.50;99.90;;;;;;4919762;29;20055;-91
2021/11/30 19:22:39;;;;;;;2.50;1.45;;;9.40;99.90;;;;;;4922950;29;21061;-90
2021/11/30 19:25:07;;;;;;;4.13;1.67;;;9.40;99.90;;;;;;4924986;29;20048;-91
2021/11/30 19:27:33;;;;;;;1.85;1.50;;;9.40;99.90;;;;;;4926645;29;20027;-92
2021/11/30 19:29:59;;;;;;;1.73;1.63;;;9.30;99.90;;;;;;4956857;28;20059;-91
2021/11/30 19:32:24;;;;;;;3.00;1.70;;;9.30;99.90;;;;;;4924588;29;20083;-91
2021/11/30 19:34:50;;;;;;;4.00;1.63;;;9.30;99.90;;;;;;4927303;29;20422;-92
2021/11/30 19:37:20;;;;;;;3.08;1.40;;;9.30;99.90;;;;;;4930340;29;20143;-90
2021/11/30 19:39:49;;;;;;;3.00;1.60;;;9.30;99.90;;;;;;4929966;29;20031;-91
2021/11/30 19:42:16;;;;;;;1.65;1.17;;;9.30;99.90;;;;;;4924941;29;20098;-91
2021/11/30 19:44:43;;;;;;;2.10;1.50;;;9.20;99.90;;;;;;4928569;29;20040;-91
2021/11/30 19:47:15;;;;;;;3.35;1.70;;;9.20;99.90;;;;;;4928109;29;20027;-92
2021/11/30 19:49:43;;;;;;;2.20;1.70;;;9.10;99.90;;;;;;4929345;29;20039;-92
2021/11/30 19:52:11;;;;;;;3.03;1.75;;;9.10;99.90;;;;;;4929810;29;20658;-92
2021/11/30 19:54:38;;;;;;;2.67;1.90;;;9.10;99.90;;;;;;4927994;29;20419;-93
2021/11/30 19:57:08;;;;;;;1.83;1.73;;;9.10;99.90;;;;;;4933338;29;20102;-93
2021/11/30 19:59:36;;;;;;;2.65;1.90;;;9.10;99.90;;;;;;4931950;29;20058;-92
2021/11/30 20:07:37;;;;;;;3.03;1.60;;;9.10;99.90;;;;;;4950441;29;20049;-93
2021/11/30 20:10:06;;;;;;;1.48;1.38;;;9.10;99.90;;;;;;4952122;29;20039;-93
2021/11/30 20:12:35;;;;;;;1.65;1.48;;;9.00;99.90;;;;;;4933548;29;20116;-92
2021/11/30 20:15:01;;;;;;;1.48;1.38;;;9.00;99.90;;;;;;4935923;29;20496;-91
2021/11/30 20:17:27;;;;;;;1.35;1.25;;;9.00;99.90;;;;;;4935708;29;20051;-93
2021/11/30 20:19:56;;;;;;;2.28;1.30;;;9.00;99.90;;;;;;4941887;29;20035;-92
2021/11/30 20:22:21;;;;;;;1.30;1.20;;;9.00;99.90;;;;;;4942829;29;20030;-92
2021/11/30 20:24:47;;;;;;;1.30;1.20;;;9.00;99.90;;;;;;4939356;29;20051;-93
2021/11/30 20:27:13;;;;;;;3.50;1.10;;;8.90;99.90;;;;;;4965095;28;20095;-93
2021/11/30 20:29:41;;;;;;;1.25;1.00;;;8.90;99.90;;;;;;4935049;29;20036;-93
2021/11/30 20:32:09;;;;;;;1.30;1.05;;;8.90;99.90;;;;;;4933838;29;20111;-93
2021/11/30 20:34:36;;;;;;;3.88;1.10;;;8.90;99.90;;;;;;4932750;29;20019;-93
2021/11/30 20:39:50;;;;;;;1.92;1.38;;;8.90;99.90;;;;;;4948221;29;20393;-93
2021/11/30 20:42:16;;;;;;;2.15;1.50;;;8.90;99.90;;;;;;4961753;28;20024;-93
2021/11/30 20:44:41;;;;;;;2.58;1.55;;;8.90;99.90;;;;;;4932311;29;20496;-92
2021/11/30 20:47:07;;;;;;;2.83;1.45;;;8.80;99.90;;;;;;4933589;29;20091;-93
2021/11/30 20:49:33;;;;;;;2.38;1.50;;;8.80;99.90;;;;;;4932348;29;20039;-92
2021/11/30 20:51:59;;;;;;;1.42;1.15;;;8.80;99.90;;;;;;4931405;29;20037;-92
2021/11/30 20:54:26;;;;;;;3.28;1.08;;;8.80;99.90;;;;;;4929858;29;20062;-94
2021/11/30 20:56:52;;;;;;;0.98;0.80;;;8.80;99.90;;;;;;4930753;29;20023;-93
2021/11/30 20:59:21;;;;;;;1.23;0.90;;;8.80;99.90;;;;;;4929480;29;20034;-93
2021/11/30 21:04:31;;;;;;;1.00;0.90;;;8.80;99.90;;;;;;4945154;29;20098;-94
2021/11/30 21:06:58;;;;;;;1.67;0.93;;;8.80;99.90;;;;;;4930082;29;20470;-92
2021/11/30 21:09:23;;;;;;;3.97;1.27;;;8.80;99.90;;;;;;4931567;29;20095;-92
2021/11/30 21:11:52;;;;;;;2.25;0.80;;;8.80;99.90;;;;;;4958004;28;20039;-92
2021/11/30 21:14:18;;;;;;;2.63;0.98;;;8.80;99.90;;;;;;4947531;29;20031;-91
2021/11/30 21:16:43;;;;;;;1.23;0.70;;;8.90;99.90;;;;;;4957070;28;20036;-92
2021/11/30 21:19:12;;;;;;;4.47;0.77;;;8.80;99.90;;;;;;4926020;29;20028;-92
2021/11/30 21:21:37;;;;;;;0.90;0.80;;;8.80;99.90;;;;;;4953202;28;20637;-94
2021/11/30 21:24:04;;;;;;;1.05;0.90;;;8.80;99.90;;;;;;4944912;28;20039;-92
2021/11/30 21:26:30;;;;;;;1.05;0.88;;;8.70;99.90;;;;;;4918600;29;20049;-93
2021/11/30 21:28:56;;;;;;;0.50;0.50;;;8.70;99.90;;;;;;4911571;29;20039;-93
2021/11/30 21:31:22;;;;;;;1.02;0.90;;;8.70;99.90;;;;;;4905777;29;20043;-93
2021/11/30 21:33:51;;;;;;;1.10;0.80;;;8.70;99.90;;;;;;4922683;29;20035;-92